sensor_id;sensor_type;location;lat;lon;timestamp;pressure;altitude;pressure_sealevel;temperature;humidity
10127;BME280;13080;42.608;23.362;2023-07-13T00:01:35;156382.03;;;20.81;55.60
10127;BME280;13080;42.608;23.362;2023-07-13T00:04:04;156378.09;;;20.80;55.62
10127;BME280;13080;42.608;23.362;2023-07-13T00:06:31;156370.28;;;20.76;55.38
10127;BME280;13080;42.608;23.362;2023-07-13T00:08:58;156363.75;;;20.74;55.64
10127;BME280;13080;42.608;23.362;2023-07-13T00:11:25;156358.50;;;20.72;55.50
10127;BME280;13080;42.608;23.362;2023-07-13T00:13:51;156358.50;;;20.72;55.77
10127;BME280;13080;42.608;23.362;2023-07-13T00:16:20;156351.91;;;20.69;55.72
10127;BME280;13080;42.608;23.362;2023-07-13T00:18:47;156346.72;;;20.67;56.10
10127;BME280;13080;42.608;23.362;2023-07-13T00:21:13;156333.63;;;20.62;56.29
10127;BME280;13080;42.608;23.362;2023-07-13T00:23:41;156323.16;;;20.58;56.47
10127;BME280;13080;42.608;23.362;2023-07-13T00:26:10;156320.56;;;20.57;56.33
10127;BME280;13080;42.608;23.362;2023-07-13T00:28:38;156306.09;;;20.51;57.45
10127;BME280;13080;42.608;23.362;2023-07-13T00:31:05;156299.56;;;20.49;57.46
10127;BME280;13080;42.608;23.362;2023-07-13T00:33:33;156296.97;;;20.48;56.46
10127;BME280;13080;42.608;23.362;2023-07-13T00:36:00;156285.19;;;20.43;57.54
10127;BME280;13080;42.608;23.362;2023-07-13T00:38:27;156291.72;;;20.46;58.39
10127;BME280;13080;42.608;23.362;2023-07-13T00:40:53;156283.91;;;20.43;57.03
10127;BME280;13080;42.608;23.362;2023-07-13T00:43:22;156282.56;;;20.42;57.27
10127;BME280;13080;42.608;23.362;2023-07-13T00:48:55;156264.25;;;20.35;58.60
10127;BME280;13080;42.608;23.362;2023-07-13T00:51:27;156253.78;;;20.31;58.91
10127;BME280;13080;42.608;23.362;2023-07-13T00:53:59;156236.78;;;20.24;58.71
10127;BME280;13080;42.608;23.362;2023-07-13T00:56:27;156225.03;;;20.20;59.96
10127;BME280;13080;42.608;23.362;2023-07-13T00:58:55;156211.97;;;20.14;61.69
10127;BME280;13080;42.608;23.362;2023-07-13T01:01:22;156185.78;;;20.04;62.12
10127;BME280;13080;42.608;23.362;2023-07-13T01:03:48;156159.66;;;19.94;63.06
10127;BME280;13080;42.608;23.362;2023-07-13T01:06:17;156141.38;;;19.87;62.54
10127;BME280;13080;42.608;23.362;2023-07-13T01:08:44;156128.28;;;19.82;63.20
10127;BME280;13080;42.608;23.362;2023-07-13T01:11:10;156138.72;;;19.86;61.73
10127;BME280;13080;42.608;23.362;2023-07-13T01:13:37;156129.63;;;19.82;61.67
10127;BME280;13080;42.608;23.362;2023-07-13T01:16:12;156116.50;;;19.77;62.30
10127;BME280;13080;42.608;23.362;2023-07-13T01:18:41;156117.84;;;19.78;61.56
10127;BME280;13080;42.608;23.362;2023-07-13T01:21:09;156103.44;;;19.72;61.99
10127;BME280;13080;42.608;23.362;2023-07-13T01:23:36;156104.75;;;19.72;61.82
10127;BME280;13080;42.608;23.362;2023-07-13T01:26:02;156107.38;;;19.73;60.99
10127;BME280;13080;42.608;23.362;2023-07-13T01:28:29;156107.38;;;19.73;60.41
10127;BME280;13080;42.608;23.362;2023-07-13T01:30:58;156112.63;;;19.76;60.42
10127;BME280;13080;42.608;23.362;2023-07-13T01:33:25;156123.03;;;19.80;60.96
10127;BME280;13080;42.608;23.362;2023-07-13T01:35:52;156128.28;;;19.82;60.79
10127;BME280;13080;42.608;23.362;2023-07-13T01:38:22;156123.03;;;19.80;60.90
10127;BME280;13080;42.608;23.362;2023-07-13T01:40:49;156141.38;;;19.87;61.51
10127;BME280;13080;42.608;23.362;2023-07-13T01:43:17;156129.63;;;19.82;61.20
10127;BME280;13080;42.608;23.362;2023-07-13T01:45:44;156123.03;;;19.80;61.49
10127;BME280;13080;42.608;23.362;2023-07-13T01:48:11;156112.63;;;19.76;62.07
10127;BME280;13080;42.608;23.362;2023-07-13T01:50:38;156104.75;;;19.72;62.44
10127;BME280;13080;42.608;23.362;2023-07-13T01:53:06;156094.22;;;19.68;62.58
10127;BME280;13080;42.608;23.362;2023-07-13T01:55:34;156090.34;;;19.67;63.71
10127;BME280;13080;42.608;23.362;2023-07-13T01:58:01;156079.88;;;19.63;62.77
10127;BME280;13080;42.608;23.362;2023-07-13T02:00:28;156078.56;;;19.62;62.82
10127;BME280;13080;42.608;23.362;2023-07-13T02:02:55;156077.22;;;19.62;63.30
10127;BME280;13080;42.608;23.362;2023-07-13T02:05:22;156075.94;;;19.61;63.76
10127;BME280;13080;42.608;23.362;2023-07-13T02:07:48;156064.16;;;19.57;63.57
10127;BME280;13080;42.608;23.362;2023-07-13T02:10:15;156057.66;;;19.54;64.24
10127;BME280;13080;42.608;23.362;2023-07-13T02:12:44;156051.13;;;19.51;63.98
10127;BME280;13080;42.608;23.362;2023-07-13T02:15:11;156056.34;;;19.53;63.75
10127;BME280;13080;42.608;23.362;2023-07-13T02:17:37;156064.16;;;19.57;63.59
10127;BME280;13080;42.608;23.362;2023-07-13T02:20:05;156052.41;;;19.52;62.77
10127;BME280;13080;42.608;23.362;2023-07-13T02:22:32;156051.13;;;19.51;63.25
10127;BME280;13080;42.608;23.362;2023-07-13T02:24:59;156066.81;;;19.58;63.06
10127;BME280;13080;42.608;23.362;2023-07-13T02:27:26;156061.59;;;19.56;62.44
10127;BME280;13080;42.608;23.362;2023-07-13T02:29:54;156052.41;;;19.52;62.89
10127;BME280;13080;42.608;23.362;2023-07-13T02:32:21;156043.28;;;19.48;64.34
10127;BME280;13080;42.608;23.362;2023-07-13T02:34:47;156035.41;;;19.45;64.94
10127;BME280;13080;42.608;23.362;2023-07-13T02:37:14;156041.94;;;19.48;63.65
10127;BME280;13080;42.608;23.362;2023-07-13T02:39:41;156034.13;;;19.45;63.25
10127;BME280;13080;42.608;23.362;2023-07-13T02:42:08;156032.81;;;19.44;62.99
10127;BME280;13080;42.608;23.362;2023-07-13T02:44:34;156032.81;;;19.44;63.45
10127;BME280;13080;42.608;23.362;2023-07-13T02:47:02;156043.28;;;19.48;63.24
10127;BME280;13080;42.608;23.362;2023-07-13T02:49:29;156041.94;;;19.48;63.40
10127;BME280;13080;42.608;23.362;2023-07-13T02:51:56;156036.72;;;19.46;64.05
10127;BME280;13080;42.608;23.362;2023-07-13T02:54:23;156027.59;;;19.42;63.57
10127;BME280;13080;42.608;23.362;2023-07-13T02:56:49;156022.38;;;19.40;64.71
10127;BME280;13080;42.608;23.362;2023-07-13T02:59:16;156017.13;;;19.38;64.85
10127;BME280;13080;42.608;23.362;2023-07-13T03:01:43;156011.91;;;19.36;64.84
10127;BME280;13080;42.608;23.362;2023-07-13T03:04:11;156010.59;;;19.36;65.35
10127;BME280;13080;42.608;23.362;2023-07-13T03:06:37;155998.84;;;19.31;65.53
10127;BME280;13080;42.608;23.362;2023-07-13T03:09:05;155996.22;;;19.30;68.22
10127;BME280;13080;42.608;23.362;2023-07-13T03:11:32;155990.97;;;19.28;66.99
10127;BME280;13080;42.608;23.362;2023-07-13T03:13:58;155981.84;;;19.24;67.44
10127;BME280;13080;42.608;23.362;2023-07-13T03:16:25;155979.22;;;19.23;68.00
10127;BME280;13080;42.608;23.362;2023-07-13T03:18:52;155974.00;;;19.21;68.32
10127;BME280;13080;42.608;23.362;2023-07-13T03:21:20;155967.47;;;19.19;67.92
10127;BME280;13080;42.608;23.362;2023-07-13T03:23:47;155979.22;;;19.23;67.57
10127;BME280;13080;42.608;23.362;2023-07-13T03:26:16;155989.69;;;19.27;67.94
10127;BME280;13080;42.608;23.362;2023-07-13T03:28:43;155994.91;;;19.29;69.19
10127;BME280;13080;42.608;23.362;2023-07-13T03:31:13;155998.84;;;19.31;69.27
10127;BME280;13080;42.608;23.362;2023-07-13T03:33:40;155998.84;;;19.31;68.99
10127;BME280;13080;42.608;23.362;2023-07-13T03:36:11;155990.97;;;19.28;69.30
10127;BME280;13080;42.608;23.362;2023-07-13T03:38:40;156005.38;;;19.34;69.27
10127;BME280;13080;42.608;23.362;2023-07-13T03:41:07;156022.38;;;19.40;69.42
10127;BME280;13080;42.608;23.362;2023-07-13T03:43:33;156030.19;;;19.43;70.37
10127;BME280;13080;42.608;23.362;2023-07-13T03:46:00;156038.06;;;19.46;71.31
10127;BME280;13080;42.608;23.362;2023-07-13T03:48:27;156052.41;;;19.52;71.71
10127;BME280;13080;42.608;23.362;2023-07-13T03:50:53;156051.13;;;19.51;72.43
10127;BME280;13080;42.608;23.362;2023-07-13T03:53:20;156056.34;;;19.53;72.27
10127;BME280;13080;42.608;23.362;2023-07-13T03:55:48;156077.22;;;19.62;72.29
10127;BME280;13080;42.608;23.362;2023-07-13T03:58:30;156096.91;;;19.69;71.10
10127;BME280;13080;42.608;23.362;2023-07-13T04:00:58;156103.44;;;19.72;72.75
10127;BME280;13080;42.608;23.362;2023-07-13T04:03:26;156115.22;;;19.77;72.81
10127;BME280;13080;42.608;23.362;2023-07-13T04:05:54;156141.38;;;19.87;71.85
10127;BME280;13080;42.608;23.362;2023-07-13T04:08:26;156160.97;;;19.94;71.26
10127;BME280;13080;42.608;23.362;2023-07-13T04:10:55;156185.78;;;20.04;71.03
10127;BME280;13080;42.608;23.362;2023-07-13T04:13:22;156209.38;;;20.13;71.77
10127;BME280;13080;42.608;23.362;2023-07-13T04:15:49;156230.25;;;20.22;71.44
10127;BME280;13080;42.608;23.362;2023-07-13T04:18:16;156261.66;;;20.34;72.06
10127;BME280;13080;42.608;23.362;2023-07-13T04:20:43;156283.91;;;20.43;71.72
10127;BME280;13080;42.608;23.362;2023-07-13T04:23:10;156311.31;;;20.53;70.97
10127;BME280;13080;42.608;23.362;2023-07-13T04:25:37;156342.78;;;20.66;69.85
10127;BME280;13080;42.608;23.362;2023-07-13T04:28:06;156382.03;;;20.81;70.68
10127;BME280;13080;42.608;23.362;2023-07-13T04:30:33;156436.97;;;21.03;73.87
10127;BME280;13080;42.608;23.362;2023-07-13T04:32:59;156461.84;;;21.12;73.34
10127;BME280;13080;42.608;23.362;2023-07-13T04:35:26;156473.63;;;21.17;72.85
10127;BME280;13080;42.608;23.362;2023-07-13T04:37:53;156469.69;;;21.15;72.40
10127;BME280;13080;42.608;23.362;2023-07-13T04:40:20;156474.91;;;21.17;73.22
10127;BME280;13080;42.608;23.362;2023-07-13T04:42:47;156484.09;;;21.21;72.55
10127;BME280;13080;42.608;23.362;2023-07-13T04:45:15;156508.94;;;21.31;71.77
10127;BME280;13080;42.608;23.362;2023-07-13T04:47:42;156533.84;;;21.41;73.16
10127;BME280;13080;42.608;23.362;2023-07-13T04:50:12;156561.34;;;21.51;72.89
10127;BME280;13080;42.608;23.362;2023-07-13T04:52:40;156578.34;;;21.58;73.59
10127;BME280;13080;42.608;23.362;2023-07-13T04:55:08;156613.69;;;21.72;73.96
10127;BME280;13080;42.608;23.362;2023-07-13T04:57:34;156567.88;;;21.54;73.81
10127;BME280;13080;42.608;23.362;2023-07-13T05:00:01;156583.59;;;21.60;73.71
10127;BME280;13080;42.608;23.362;2023-07-13T05:02:32;156599.31;;;21.66;73.01
10127;BME280;13080;42.608;23.362;2023-07-13T05:05:00;156612.38;;;21.71;71.34
10127;BME280;13080;42.608;23.362;2023-07-13T05:07:28;156637.25;;;21.81;70.87
10127;BME280;13080;42.608;23.362;2023-07-13T05:09:55;156628.09;;;21.77;69.93
10127;BME280;13080;42.608;23.362;2023-07-13T05:12:22;156630.69;;;21.78;69.49
10127;BME280;13080;42.608;23.362;2023-07-13T05:14:49;156611.09;;;21.71;69.00
10127;BME280;13080;42.608;23.362;2023-07-13T05:17:15;156618.91;;;21.74;69.46
10127;BME280;13080;42.608;23.362;2023-07-13T05:19:43;156595.38;;;21.65;70.40
10127;BME280;13080;42.608;23.362;2023-07-13T05:22:10;156620.22;;;21.74;69.79
10127;BME280;13080;42.608;23.362;2023-07-13T05:24:37;156643.78;;;21.84;70.91
10127;BME280;13080;42.608;23.362;2023-07-13T05:27:05;156677.81;;;21.97;71.36
10127;BME280;13080;42.608;23.362;2023-07-13T05:29:31;156693.53;;;22.03;71.74
10127;BME280;13080;42.608;23.362;2023-07-13T05:31:58;156735.41;;;22.19;71.65
10127;BME280;13080;42.608;23.362;2023-07-13T05:34:25;156773.47;;;22.34;72.75
10127;BME280;13080;42.608;23.362;2023-07-13T05:36:53;156804.91;;;22.47;73.69
10127;BME280;13080;42.608;23.362;2023-07-13T05:39:20;156827.13;;;22.55;68.72
10127;BME280;13080;42.608;23.362;2023-07-13T05:41:46;156850.75;;;22.65;67.86
10127;BME280;13080;42.608;23.362;2023-07-13T05:44:13;156876.91;;;22.75;69.60
10127;BME280;13080;42.608;23.362;2023-07-13T05:46:40;156913.63;;;22.89;69.49
10127;BME280;13080;42.608;23.362;2023-07-13T05:49:06;156942.47;;;23.00;70.22
10127;BME280;13080;42.608;23.362;2023-07-13T05:51:33;156973.91;;;23.13;68.59
10127;BME280;13080;42.608;23.362;2023-07-13T05:54:01;157027.59;;;23.34;68.08
10127;BME280;13080;42.608;23.362;2023-07-13T05:56:28;157053.81;;;23.44;68.42
10127;BME280;13080;42.608;23.362;2023-07-13T05:58:56;157103.63;;;23.63;68.91
10127;BME280;13080;42.608;23.362;2023-07-13T06:01:23;157139.06;;;23.77;68.10
10127;BME280;13080;42.608;23.362;2023-07-13T06:03:49;157186.22;;;23.96;65.38
10127;BME280;13080;42.608;23.362;2023-07-13T06:06:16;157198.03;;;24.00;65.62
10127;BME280;13080;42.608;23.362;2023-07-13T06:08:43;157215.06;;;24.07;66.28
10127;BME280;13080;42.608;23.362;2023-07-13T06:11:14;157232.09;;;24.14;67.22
10127;BME280;13080;42.608;23.362;2023-07-13T06:13:41;157274.03;;;24.30;68.59
10127;BME280;13080;42.608;23.362;2023-07-13T06:16:07;157304.25;;;24.42;68.04
10127;BME280;13080;42.608;23.362;2023-07-13T06:18:35;157319.97;;;24.48;68.29
10127;BME280;13080;42.608;23.362;2023-07-13T06:21:06;157334.44;;;24.54;67.66
10127;BME280;13080;42.608;23.362;2023-07-13T06:23:33;157367.22;;;24.66;66.84
10127;BME280;13080;42.608;23.362;2023-07-13T06:26:00;157382.94;;;24.73;67.59
10127;BME280;13080;42.608;23.362;2023-07-13T06:28:29;157382.94;;;24.73;67.71
10127;BME280;13080;42.608;23.362;2023-07-13T06:30:56;157373.78;;;24.69;70.65
10127;BME280;13080;42.608;23.362;2023-07-13T06:33:23;157401.31;;;24.80;64.73
10127;BME280;13080;42.608;23.362;2023-07-13T06:35:50;157424.94;;;24.89;65.79
10127;BME280;13080;42.608;23.362;2023-07-13T06:38:17;157469.47;;;25.06;65.24
10127;BME280;13080;42.608;23.362;2023-07-13T06:40:43;157490.47;;;25.15;61.67
10127;BME280;13080;42.608;23.362;2023-07-13T06:43:10;157510.19;;;25.22;59.52
10127;BME280;13080;42.608;23.362;2023-07-13T06:45:44;157523.34;;;25.27;62.51
10127;BME280;13080;42.608;23.362;2023-07-13T06:48:12;157558.75;;;25.41;65.02
10127;BME280;13080;42.608;23.362;2023-07-13T06:50:39;157569.25;;;25.45;63.28
10127;BME280;13080;42.608;23.362;2023-07-13T06:53:06;157588.91;;;25.53;61.07
10127;BME280;13080;42.608;23.362;2023-07-13T06:55:33;157581.06;;;25.50;59.30
10127;BME280;13080;42.608;23.362;2023-07-13T06:57:59;157587.63;;;25.52;59.44
10127;BME280;13080;42.608;23.362;2023-07-13T07:00:26;157611.22;;;25.62;59.28
10127;BME280;13080;42.608;23.362;2023-07-13T07:02:54;157629.59;;;25.69;59.00
10127;BME280;13080;42.608;23.362;2023-07-13T07:05:21;157650.59;;;25.77;58.20
10127;BME280;13080;42.608;23.362;2023-07-13T07:07:47;157653.19;;;25.78;58.69
10127;BME280;13080;42.608;23.362;2023-07-13T07:10:14;157653.19;;;25.78;57.21
10127;BME280;13080;42.608;23.362;2023-07-13T07:12:41;157651.91;;;25.78;57.90
10127;BME280;13080;42.608;23.362;2023-07-13T07:15:09;157667.66;;;25.84;58.69
10127;BME280;13080;42.608;23.362;2023-07-13T07:17:36;157676.91;;;25.87;59.94
10127;BME280;13080;42.608;23.362;2023-07-13T07:20:05;157696.56;;;25.95;60.28
10127;BME280;13080;42.608;23.362;2023-07-13T07:22:32;157728.03;;;26.07;57.81
10127;BME280;13080;42.608;23.362;2023-07-13T07:24:59;157734.66;;;26.10;57.06
10127;BME280;13080;42.608;23.362;2023-07-13T07:27:26;157743.81;;;26.13;57.59
10127;BME280;13080;42.608;23.362;2023-07-13T07:29:53;157737.25;;;26.11;55.87
10127;BME280;13080;42.608;23.362;2023-07-13T07:32:20;157718.88;;;26.04;58.65
10127;BME280;13080;42.608;23.362;2023-07-13T07:34:46;157754.31;;;26.18;58.51
10127;BME280;13080;42.608;23.362;2023-07-13T07:37:15;157784.50;;;26.29;56.41
10127;BME280;13080;42.608;23.362;2023-07-13T07:39:42;157804.22;;;26.37;58.85
10127;BME280;13080;42.608;23.362;2023-07-13T07:42:09;157826.53;;;26.46;55.08
10127;BME280;13080;42.608;23.362;2023-07-13T07:44:36;157826.53;;;26.46;55.90
10127;BME280;13080;42.608;23.362;2023-07-13T07:47:03;157834.38;;;26.49;57.62
10127;BME280;13080;42.608;23.362;2023-07-13T07:49:30;157842.25;;;26.52;56.32
10127;BME280;13080;42.608;23.362;2023-07-13T07:51:56;157885.66;;;26.69;57.83
10127;BME280;13080;42.608;23.362;2023-07-13T07:54:24;157890.91;;;26.71;57.69
10127;BME280;13080;42.608;23.362;2023-07-13T07:56:51;157884.34;;;26.68;56.92
10127;BME280;13080;42.608;23.362;2023-07-13T07:59:19;157915.84;;;26.81;55.73
10127;BME280;13080;42.608;23.362;2023-07-13T08:01:46;157905.31;;;26.77;57.41
10127;BME280;13080;42.608;23.362;2023-07-13T08:04:13;157894.81;;;26.72;57.01
10127;BME280;13080;42.608;23.362;2023-07-13T08:06:40;157922.38;;;26.83;59.05
10127;BME280;13080;42.608;23.362;2023-07-13T08:09:06;157948.66;;;26.93;59.22
10127;BME280;13080;42.608;23.362;2023-07-13T08:11:35;157985.41;;;27.08;58.61
10127;BME280;13080;42.608;23.362;2023-07-13T08:14:02;158007.75;;;27.16;57.16
10127;BME280;13080;42.608;23.362;2023-07-13T08:16:29;158023.56;;;27.23;59.02
10127;BME280;13080;42.608;23.362;2023-07-13T08:18:58;158065.56;;;27.39;58.81
10127;BME280;13080;42.608;23.362;2023-07-13T08:21:25;158090.53;;;27.49;58.84
10127;BME280;13080;42.608;23.362;2023-07-13T08:23:51;158107.59;;;27.55;57.66
10127;BME280;13080;42.608;23.362;2023-07-13T08:26:18;158124.69;;;27.62;57.53
10127;BME280;13080;42.608;23.362;2023-07-13T08:28:46;158118.13;;;27.60;57.62
10127;BME280;13080;42.608;23.362;2023-07-13T08:31:13;158126.03;;;27.63;59.74
10127;BME280;13080;42.608;23.362;2023-07-13T08:33:40;158124.69;;;27.62;57.92
10127;BME280;13080;42.608;23.362;2023-07-13T08:36:07;158126.03;;;27.63;57.82
10127;BME280;13080;42.608;23.362;2023-07-13T08:38:34;158133.88;;;27.66;58.42
10127;BME280;13080;42.608;23.362;2023-07-13T08:41:09;158135.19;;;27.66;57.68
10127;BME280;13080;42.608;23.362;2023-07-13T08:43:37;158175.91;;;27.82;57.81
10127;BME280;13080;42.608;23.362;2023-07-13T08:46:11;158172.00;;;27.81;55.99
10127;BME280;13080;42.608;23.362;2023-07-13T08:48:41;158175.91;;;27.82;56.22
10127;BME280;13080;42.608;23.362;2023-07-13T08:51:18;158194.41;;;27.89;56.22
10127;BME280;13080;42.608;23.362;2023-07-13T08:53:49;158198.31;;;27.91;57.43
10127;BME280;13080;42.608;23.362;2023-07-13T08:56:19;158235.13;;;28.05;57.48
10127;BME280;13080;42.608;23.362;2023-07-13T08:58:51;158258.78;;;28.14;56.06
10127;BME280;13080;42.608;23.362;2023-07-13T09:01:27;158294.25;;;28.28;54.00
10127;BME280;13080;42.608;23.362;2023-07-13T09:04:01;158278.44;;;28.22;56.25
10127;BME280;13080;42.608;23.362;2023-07-13T09:06:39;158303.44;;;28.32;57.41
10127;BME280;13080;42.608;23.362;2023-07-13T09:09:15;158344.25;;;28.48;51.95
10127;BME280;13080;42.608;23.362;2023-07-13T09:11:50;158349.50;;;28.50;52.55
10127;BME280;13080;42.608;23.362;2023-07-13T09:14:41;158323.16;;;28.39;54.42
10127;BME280;13080;42.608;23.362;2023-07-13T09:17:14;158349.50;;;28.50;52.54
10127;BME280;13080;42.608;23.362;2023-07-13T09:19:43;158353.41;;;28.51;53.65
10127;BME280;13080;42.608;23.362;2023-07-13T09:22:17;158374.47;;;28.59;49.25
10127;BME280;13080;42.608;23.362;2023-07-13T09:24:52;158394.16;;;28.67;47.82
10127;BME280;13080;42.608;23.362;2023-07-13T09:27:23;158386.28;;;28.64;49.26
10127;BME280;13080;42.608;23.362;2023-07-13T09:29:58;158398.09;;;28.69;48.61
10127;BME280;13080;42.608;23.362;2023-07-13T09:32:29;158378.41;;;28.61;48.66
10127;BME280;13080;42.608;23.362;2023-07-13T09:34:57;158417.81;;;28.76;50.06
10127;BME280;13080;42.608;23.362;2023-07-13T09:37:30;158467.78;;;28.96;49.20
10127;BME280;13080;42.608;23.362;2023-07-13T09:39:59;158494.09;;;29.06;45.66
10127;BME280;13080;42.608;23.362;2023-07-13T09:42:31;158507.28;;;29.11;49.48
10127;BME280;13080;42.608;23.362;2023-07-13T09:45:00;158500.72;;;29.09;47.39
10127;BME280;13080;42.608;23.362;2023-07-13T09:47:32;158528.31;;;29.19;46.50
10127;BME280;13080;42.608;23.362;2023-07-13T09:50:08;158550.63;;;29.28;47.27
10127;BME280;13080;42.608;23.362;2023-07-13T09:52:42;158578.25;;;29.39;47.28
10127;BME280;13080;42.608;23.362;2023-07-13T09:55:24;158617.72;;;29.54;48.27
10127;BME280;13080;42.608;23.362;2023-07-13T09:57:51;158655.91;;;29.69;47.75
10127;BME280;13080;42.608;23.362;2023-07-13T10:00:22;158669.06;;;29.74;47.70
10127;BME280;13080;42.608;23.362;2023-07-13T10:03:04;158699.28;;;29.86;48.35
10127;BME280;13080;42.608;23.362;2023-07-13T10:05:39;158732.19;;;29.99;46.58
10127;BME280;13080;42.608;23.362;2023-07-13T10:08:16;158754.56;;;30.08;48.16
10127;BME280;13080;42.608;23.362;2023-07-13T10:10:44;158771.66;;;30.14;47.92
10127;BME280;13080;42.608;23.362;2023-07-13T10:13:25;158791.38;;;30.22;48.60
10127;BME280;13080;42.608;23.362;2023-07-13T10:15:52;158813.78;;;30.31;47.50
10127;BME280;13080;42.608;23.362;2023-07-13T10:18:21;158845.38;;;30.43;47.08
10127;BME280;13080;42.608;23.362;2023-07-13T10:20:48;158833.56;;;30.38;45.92
10127;BME280;13080;42.608;23.362;2023-07-13T10:23:21;158842.72;;;30.42;44.11
10127;BME280;13080;42.608;23.362;2023-07-13T18:20:34;157733.28;;;26.09;49.39
10127;BME280;13080;42.608;23.362;2023-07-13T18:23:02;157753.00;;;26.17;47.42
10127;BME280;13080;42.608;23.362;2023-07-13T18:25:31;157753.00;;;26.17;47.62
10127;BME280;13080;42.608;23.362;2023-07-13T18:27:58;157747.75;;;26.15;47.38
10127;BME280;13080;42.608;23.362;2023-07-13T18:30:24;157733.28;;;26.09;49.85
10127;BME280;13080;42.608;23.362;2023-07-13T18:32:52;157710.97;;;26.01;51.23
10127;BME280;13080;42.608;23.362;2023-07-13T18:35:26;157679.50;;;25.88;50.40
10127;BME280;13080;42.608;23.362;2023-07-13T18:37:55;157667.66;;;25.84;49.45
10127;BME280;13080;42.608;23.362;2023-07-13T18:40:22;157661.09;;;25.81;48.54
10127;BME280;13080;42.608;23.362;2023-07-13T18:42:51;157672.91;;;25.86;49.13
10127;BME280;13080;42.608;23.362;2023-07-13T18:45:19;157662.41;;;25.82;49.79
10127;BME280;13080;42.608;23.362;2023-07-13T18:47:54;157668.97;;;25.84;48.98
10127;BME280;13080;42.608;23.362;2023-07-13T18:50:27;157693.94;;;25.94;48.88
10127;BME280;13080;42.608;23.362;2023-07-13T18:52:56;157707.09;;;25.99;49.41
10127;BME280;13080;42.608;23.362;2023-07-13T18:55:24;157717.59;;;26.03;49.51
10127;BME280;13080;42.608;23.362;2023-07-13T18:57:51;157716.25;;;26.03;50.75
10127;BME280;13080;42.608;23.362;2023-07-13T19:00:21;157676.91;;;25.87;51.43
10127;BME280;13080;42.608;23.362;2023-07-13T19:02:52;157661.09;;;25.81;50.57
10127;BME280;13080;42.608;23.362;2023-07-13T19:05:21;157632.25;;;25.70;50.63
10127;BME280;13080;42.608;23.362;2023-07-13T19:07:49;157599.41;;;25.57;51.13
10127;BME280;13080;42.608;23.362;2023-07-13T19:10:20;157569.25;;;25.45;51.68
10127;BME280;13080;42.608;23.362;2023-07-13T19:12:51;157546.94;;;25.37;51.17
10127;BME280;13080;42.608;23.362;2023-07-13T19:15:21;157531.19;;;25.30;51.18
10127;BME280;13080;42.608;23.362;2023-07-13T19:17:49;157506.28;;;25.21;51.33
10127;BME280;13080;42.608;23.362;2023-07-13T19:20:17;157495.75;;;25.17;51.22
10127;BME280;13080;42.608;23.362;2023-07-13T19:22:50;157464.22;;;25.04;52.73
10127;BME280;13080;42.608;23.362;2023-07-13T19:25:20;157449.81;;;24.99;53.52
10127;BME280;13080;42.608;23.362;2023-07-13T19:27:48;157424.94;;;24.89;53.30
10127;BME280;13080;42.608;23.362;2023-07-13T19:30:16;157405.22;;;24.81;53.33
10127;BME280;13080;42.608;23.362;2023-07-13T19:32:44;157389.47;;;24.75;52.07
10127;BME280;13080;42.608;23.362;2023-07-13T19:35:11;157377.69;;;24.71;51.78
10127;BME280;13080;42.608;23.362;2023-07-13T19:37:38;157367.22;;;24.66;51.83
10127;BME280;13080;42.608;23.362;2023-07-13T19:40:15;157350.19;;;24.60;52.20
10127;BME280;13080;42.608;23.362;2023-07-13T19:42:44;157355.44;;;24.62;52.06
10127;BME280;13080;42.608;23.362;2023-07-13T19:45:16;157338.38;;;24.55;52.73
10127;BME280;13080;42.608;23.362;2023-07-13T19:47:43;157314.69;;;24.46;54.03
10127;BME280;13080;42.608;23.362;2023-07-13T19:50:11;157293.75;;;24.38;54.84
10127;BME280;13080;42.608;23.362;2023-07-13T19:52:43;157267.50;;;24.27;54.32
10127;BME280;13080;42.608;23.362;2023-07-13T19:55:12;157267.50;;;24.27;53.09
10127;BME280;13080;42.608;23.362;2023-07-13T19:57:40;157267.50;;;24.27;53.26
10127;BME280;13080;42.608;23.362;2023-07-13T20:00:15;157270.16;;;24.28;54.07
10127;BME280;13080;42.608;23.362;2023-07-13T20:02:43;157264.91;;;24.26;54.03
10127;BME280;13080;42.608;23.362;2023-07-13T20:05:10;157238.66;;;24.16;54.77
10127;BME280;13080;42.608;23.362;2023-07-13T20:07:36;157221.63;;;24.10;54.88
10127;BME280;13080;42.608;23.362;2023-07-13T20:10:16;157215.06;;;24.07;54.74
10127;BME280;13080;42.608;23.362;2023-07-13T20:12:43;157207.22;;;24.04;55.46
10127;BME280;13080;42.608;23.362;2023-07-13T20:15:16;157204.56;;;24.03;55.59
10127;BME280;13080;42.608;23.362;2023-07-13T20:17:44;157203.28;;;24.02;55.55
10127;BME280;13080;42.608;23.362;2023-07-13T20:20:31;157200.66;;;24.01;55.86
10127;BME280;13080;42.608;23.362;2023-07-13T20:22:59;157188.81;;;23.97;55.30
10127;BME280;13080;42.608;23.362;2023-07-13T20:25:27;157191.47;;;23.98;55.71
10127;BME280;13080;42.608;23.362;2023-07-13T20:27:56;157187.53;;;23.96;55.71
10127;BME280;13080;42.608;23.362;2023-07-13T20:30:29;157173.13;;;23.91;55.11
10127;BME280;13080;42.608;23.362;2023-07-13T20:32:59;157167.88;;;23.89;55.55
10127;BME280;13080;42.608;23.362;2023-07-13T20:35:29;157166.59;;;23.88;56.39
10127;BME280;13080;42.608;23.362;2023-07-13T20:37:56;157157.41;;;23.84;56.13
10127;BME280;13080;42.608;23.362;2023-07-13T20:40:24;157145.59;;;23.80;55.98
10127;BME280;13080;42.608;23.362;2023-07-13T20:42:52;157129.81;;;23.74;57.08
10127;BME280;13080;42.608;23.362;2023-07-13T20:45:19;157110.19;;;23.66;57.61